sensor_id;sensor_type;location;lat;lon;timestamp;P1;durP1;ratioP1;P2;durP2;ratioP2
76978;SDS011;65911;47.502;19.148;2023-02-21T00:00:56;13.90;;;6.38;;
76978;SDS011;65911;47.502;19.148;2023-02-21T00:04:17;11.57;;;6.50;;
76978;SDS011;65911;47.502;19.148;2023-02-21T00:07:38;10.85;;;6.00;;
76978;SDS011;65911;47.502;19.148;2023-02-21T00:10:59;12.23;;;6.40;;
76978;SDS011;65911;47.502;19.148;2023-02-21T00:14:19;11.47;;;5.90;;
76978;SDS011;65911;47.502;19.148;2023-02-21T00:17:40;9.95;;;5.50;;
76978;SDS011;65911;47.502;19.148;2023-02-21T00:21:01;9.90;;;5.60;;
76978;SDS011;65911;47.502;19.148;2023-02-21T00:24:22;11.27;;;5.93;;
76978;SDS011;65911;47.502;19.148;2023-02-21T00:27:43;9.43;;;5.55;;
76978;SDS011;65911;47.502;19.148;2023-02-21T00:31:04;9.70;;;5.88;;
76978;SDS011;65911;47.502;19.148;2023-02-21T00:34:25;8.70;;;5.55;;
76978;SDS011;65911;47.502;19.148;2023-02-21T00:37:50;9.82;;;5.78;;
76978;SDS011;65911;47.502;19.148;2023-02-21T00:41:11;8.57;;;5.50;;
76978;SDS011;65911;47.502;19.148;2023-02-21T00:44:32;8.95;;;5.20;;
76978;SDS011;65911;47.502;19.148;2023-02-21T00:47:53;8.27;;;5.27;;
76978;SDS011;65911;47.502;19.148;2023-02-21T00:51:14;9.40;;;5.40;;
76978;SDS011;65911;47.502;19.148;2023-02-21T00:54:35;8.85;;;4.50;;
76978;SDS011;65911;47.502;19.148;2023-02-21T00:57:56;7.57;;;4.30;;
76978;SDS011;65911;47.502;19.148;2023-02-21T01:01:17;9.13;;;4.13;;
76978;SDS011;65911;47.502;19.148;2023-02-21T01:04:38;7.80;;;4.15;;
76978;SDS011;65911;47.502;19.148;2023-02-21T01:07:59;8.32;;;4.10;;
76978;SDS011;65911;47.502;19.148;2023-02-21T01:11:20;6.22;;;4.10;;
76978;SDS011;65911;47.502;19.148;2023-02-21T01:14:41;5.80;;;3.80;;
76978;SDS011;65911;47.502;19.148;2023-02-21T01:18:02;7.15;;;3.65;;
76978;SDS011;65911;47.502;19.148;2023-02-21T01:21:23;6.47;;;3.53;;
76978;SDS011;65911;47.502;19.148;2023-02-21T01:24:43;6.60;;;4.15;;
76978;SDS011;65911;47.502;19.148;2023-02-21T01:28:05;6.55;;;3.10;;
76978;SDS011;65911;47.502;19.148;2023-02-21T01:31:26;6.77;;;3.53;;
76978;SDS011;65911;47.502;19.148;2023-02-21T01:34:47;8.32;;;2.67;;
76978;SDS011;65911;47.502;19.148;2023-02-21T01:38:09;4.63;;;2.80;;
76978;SDS011;65911;47.502;19.148;2023-02-21T01:41:30;5.55;;;2.97;;
76978;SDS011;65911;47.502;19.148;2023-02-21T01:45:11;6.07;;;2.60;;
76978;SDS011;65911;47.502;19.148;2023-02-21T01:48:40;4.63;;;2.63;;
76978;SDS011;65911;47.502;19.148;2023-02-21T01:52:02;4.05;;;2.40;;
76978;SDS011;65911;47.502;19.148;2023-02-21T01:55:24;3.27;;;2.10;;
76978;SDS011;65911;47.502;19.148;2023-02-21T01:58:47;5.32;;;1.95;;
76978;SDS011;65911;47.502;19.148;2023-02-21T02:02:14;4.88;;;2.03;;
76978;SDS011;65911;47.502;19.148;2023-02-21T02:05:57;3.07;;;1.87;;
76978;SDS011;65911;47.502;19.148;2023-02-21T02:09:20;4.97;;;2.15;;
76978;SDS011;65911;47.502;19.148;2023-02-21T02:36:10;3.35;;;2.08;;
76978;SDS011;65911;47.502;19.148;2023-02-21T02:39:21;3.33;;;2.50;;
76978;SDS011;65911;47.502;19.148;2023-02-21T02:46:18;3.35;;;1.98;;
76978;SDS011;65911;47.502;19.148;2023-02-21T02:49:24;2.90;;;2.00;;
76978;SDS011;65911;47.502;19.148;2023-02-21T02:52:28;2.72;;;1.98;;
76978;SDS011;65911;47.502;19.148;2023-02-21T02:55:39;2.97;;;1.60;;
76978;SDS011;65911;47.502;19.148;2023-02-21T02:58:55;4.22;;;1.65;;
76978;SDS011;65911;47.502;19.148;2023-02-21T03:09:54;2.75;;;1.50;;
76978;SDS011;65911;47.502;19.148;2023-02-21T03:19:19;2.15;;;1.30;;
76978;SDS011;65911;47.502;19.148;2023-02-21T03:22:28;2.70;;;1.30;;
76978;SDS011;65911;47.502;19.148;2023-02-21T03:25:31;2.72;;;1.38;;
76978;SDS011;65911;47.502;19.148;2023-02-21T03:28:36;3.00;;;1.48;;
76978;SDS011;65911;47.502;19.148;2023-02-21T03:31:43;2.13;;;1.42;;
76978;SDS011;65911;47.502;19.148;2023-02-21T03:34:50;3.97;;;1.20;;
76978;SDS011;65911;47.502;19.148;2023-02-21T03:37:54;3.75;;;1.52;;
76978;SDS011;65911;47.502;19.148;2023-02-21T03:41:00;4.57;;;1.55;;
76978;SDS011;65911;47.502;19.148;2023-02-21T03:44:03;2.63;;;1.40;;
76978;SDS011;65911;47.502;19.148;2023-02-21T03:47:06;2.83;;;1.40;;
76978;SDS011;65911;47.502;19.148;2023-02-21T03:50:09;2.72;;;1.52;;
76978;SDS011;65911;47.502;19.148;2023-02-21T03:53:14;2.00;;;1.30;;
76978;SDS011;65911;47.502;19.148;2023-02-21T03:56:34;2.67;;;1.30;;
76978;SDS011;65911;47.502;19.148;2023-02-21T04:00:09;1.33;;;1.08;;
76978;SDS011;65911;47.502;19.148;2023-02-21T04:03:31;3.40;;;1.40;;
76978;SDS011;65911;47.502;19.148;2023-02-21T04:06:52;3.40;;;1.17;;
76978;SDS011;65911;47.502;19.148;2023-02-21T04:09:55;2.67;;;1.25;;
76978;SDS011;65911;47.502;19.148;2023-02-21T04:13:06;2.50;;;1.40;;
76978;SDS011;65911;47.502;19.148;2023-02-21T04:16:15;2.77;;;1.30;;
76978;SDS011;65911;47.502;19.148;2023-02-21T04:19:17;2.63;;;1.40;;
76978;SDS011;65911;47.502;19.148;2023-02-21T04:22:19;1.95;;;1.38;;
76978;SDS011;65911;47.502;19.148;2023-02-21T04:25:23;2.45;;;1.45;;
76978;SDS011;65911;47.502;19.148;2023-02-21T04:28:31;1.75;;;1.20;;
76978;SDS011;65911;47.502;19.148;2023-02-21T04:31:34;4.30;;;1.98;;
76978;SDS011;65911;47.502;19.148;2023-02-21T04:34:41;2.35;;;1.08;;
76978;SDS011;65911;47.502;19.148;2023-02-21T04:37:44;2.20;;;1.37;;
76978;SDS011;65911;47.502;19.148;2023-02-21T04:40:47;2.45;;;1.13;;
76978;SDS011;65911;47.502;19.148;2023-02-21T04:43:49;3.75;;;1.55;;
76978;SDS011;65911;47.502;19.148;2023-02-21T04:46:53;3.57;;;1.40;;
76978;SDS011;65911;47.502;19.148;2023-02-21T04:49:55;1.77;;;1.20;;
76978;SDS011;65911;47.502;19.148;2023-02-21T04:52:58;1.63;;;1.23;;
76978;SDS011;65911;47.502;19.148;2023-02-21T04:56:00;1.73;;;1.42;;
76978;SDS011;65911;47.502;19.148;2023-02-21T04:59:02;3.13;;;1.50;;
76978;SDS011;65911;47.502;19.148;2023-02-21T05:02:04;3.42;;;1.60;;
76978;SDS011;65911;47.502;19.148;2023-02-21T05:05:07;2.47;;;1.45;;
76978;SDS011;65911;47.502;19.148;2023-02-21T05:08:09;2.97;;;1.00;;
76978;SDS011;65911;47.502;19.148;2023-02-21T05:11:11;3.05;;;0.93;;
76978;SDS011;65911;47.502;19.148;2023-02-21T05:14:14;3.42;;;1.33;;
76978;SDS011;65911;47.502;19.148;2023-02-21T05:17:19;2.80;;;1.53;;
76978;SDS011;65911;47.502;19.148;2023-02-21T05:20:21;3.90;;;1.48;;
76978;SDS011;65911;47.502;19.148;2023-02-21T05:23:23;3.22;;;0.95;;
76978;SDS011;65911;47.502;19.148;2023-02-21T05:26:39;3.35;;;1.40;;
76978;SDS011;65911;47.502;19.148;2023-02-21T05:29:41;2.50;;;1.30;;
76978;SDS011;65911;47.502;19.148;2023-02-21T05:32:47;2.20;;;1.25;;
76978;SDS011;65911;47.502;19.148;2023-02-21T05:35:50;3.78;;;1.52;;
76978;SDS011;65911;47.502;19.148;2023-02-21T05:38:53;2.83;;;1.07;;
76978;SDS011;65911;47.502;19.148;2023-02-21T05:41:56;5.43;;;1.52;;
76978;SDS011;65911;47.502;19.148;2023-02-21T05:44:59;3.13;;;1.60;;
76978;SDS011;65911;47.502;19.148;2023-02-21T05:48:01;3.57;;;1.30;;
76978;SDS011;65911;47.502;19.148;2023-02-21T05:51:03;2.58;;;1.20;;
76978;SDS011;65911;47.502;19.148;2023-02-21T05:54:06;3.15;;;1.20;;
76978;SDS011;65911;47.502;19.148;2023-02-21T05:57:09;2.53;;;1.27;;
76978;SDS011;65911;47.502;19.148;2023-02-21T06:00:14;2.25;;;1.13;;
76978;SDS011;65911;47.502;19.148;2023-02-21T06:03:21;3.17;;;1.45;;
76978;SDS011;65911;47.502;19.148;2023-02-21T06:06:23;2.35;;;1.40;;
76978;SDS011;65911;47.502;19.148;2023-02-21T06:09:25;2.53;;;1.20;;
76978;SDS011;65911;47.502;19.148;2023-02-21T06:12:27;4.57;;;1.63;;
76978;SDS011;65911;47.502;19.148;2023-02-21T06:15:30;2.38;;;1.08;;
76978;SDS011;65911;47.502;19.148;2023-02-21T06:18:32;2.83;;;1.60;;
76978;SDS011;65911;47.502;19.148;2023-02-21T06:21:34;2.97;;;1.17;;
76978;SDS011;65911;47.502;19.148;2023-02-21T06:24:37;2.05;;;1.15;;
76978;SDS011;65911;47.502;19.148;2023-02-21T06:27:39;3.65;;;1.40;;
76978;SDS011;65911;47.502;19.148;2023-02-21T06:30:41;4.20;;;1.45;;
76978;SDS011;65911;47.502;19.148;2023-02-21T06:33:45;4.53;;;1.42;;
76978;SDS011;65911;47.502;19.148;2023-02-21T06:36:52;3.38;;;1.45;;
76978;SDS011;65911;47.502;19.148;2023-02-21T06:39:54;2.43;;;1.07;;
76978;SDS011;65911;47.502;19.148;2023-02-21T06:42:57;2.25;;;1.30;;
76978;SDS011;65911;47.502;19.148;2023-02-21T06:45:59;4.32;;;1.40;;
76978;SDS011;65911;47.502;19.148;2023-02-21T06:49:01;5.30;;;1.33;;
76978;SDS011;65911;47.502;19.148;2023-02-21T06:52:04;6.10;;;1.63;;
76978;SDS011;65911;47.502;19.148;2023-02-21T06:55:09;3.20;;;1.50;;
76978;SDS011;65911;47.502;19.148;2023-02-21T06:58:12;3.60;;;1.60;;
76978;SDS011;65911;47.502;19.148;2023-02-21T07:01:14;3.17;;;1.40;;
76978;SDS011;65911;47.502;19.148;2023-02-21T07:04:17;1.92;;;1.20;;
76978;SDS011;65911;47.502;19.148;2023-02-21T07:07:19;1.73;;;1.30;;
76978;SDS011;65911;47.502;19.148;2023-02-21T07:10:22;2.13;;;1.23;;
76978;SDS011;65911;47.502;19.148;2023-02-21T07:13:24;5.35;;;1.52;;
76978;SDS011;65911;47.502;19.148;2023-02-21T07:16:28;1.80;;;1.27;;
76978;SDS011;65911;47.502;19.148;2023-02-21T07:19:30;1.97;;;1.10;;
76978;SDS011;65911;47.502;19.148;2023-02-21T07:22:32;3.35;;;1.25;;
76978;SDS011;65911;47.502;19.148;2023-02-21T07:25:36;2.67;;;1.92;;
76978;SDS011;65911;47.502;19.148;2023-02-21T07:28:38;2.78;;;1.25;;
76978;SDS011;65911;47.502;19.148;2023-02-21T07:31:40;4.95;;;1.67;;
76978;SDS011;65911;47.502;19.148;2023-02-21T07:34:45;2.50;;;1.42;;
76978;SDS011;65911;47.502;19.148;2023-02-21T07:37:48;2.88;;;1.40;;
76978;SDS011;65911;47.502;19.148;2023-02-21T07:40:50;3.33;;;1.50;;
76978;SDS011;65911;47.502;19.148;2023-02-21T07:43:55;3.60;;;1.50;;
76978;SDS011;65911;47.502;19.148;2023-02-21T07:46:57;3.75;;;1.60;;
76978;SDS011;65911;47.502;19.148;2023-02-21T07:49:59;3.30;;;1.50;;
76978;SDS011;65911;47.502;19.148;2023-02-21T07:53:02;3.10;;;1.55;;
76978;SDS011;65911;47.502;19.148;2023-02-21T07:56:05;2.88;;;0.80;;
76978;SDS011;65911;47.502;19.148;2023-02-21T07:59:07;3.33;;;1.35;;
76978;SDS011;65911;47.502;19.148;2023-02-21T08:02:10;2.90;;;1.27;;
76978;SDS011;65911;47.502;19.148;2023-02-21T08:05:13;2.25;;;1.20;;
76978;SDS011;65911;47.502;19.148;2023-02-21T08:08:16;2.22;;;1.40;;
76978;SDS011;65911;47.502;19.148;2023-02-21T08:11:18;5.27;;;1.67;;
76978;SDS011;65911;47.502;19.148;2023-02-21T08:14:20;2.58;;;0.90;;
76978;SDS011;65911;47.502;19.148;2023-02-21T08:17:23;3.58;;;1.35;;
76978;SDS011;65911;47.502;19.148;2023-02-21T08:20:25;2.53;;;1.40;;
76978;SDS011;65911;47.502;19.148;2023-02-21T08:23:29;3.63;;;1.00;;
76978;SDS011;65911;47.502;19.148;2023-02-21T08:26:31;6.47;;;1.10;;
76978;SDS011;65911;47.502;19.148;2023-02-21T08:29:33;2.92;;;1.40;;
76978;SDS011;65911;47.502;19.148;2023-02-21T08:32:36;2.50;;;1.23;;
76978;SDS011;65911;47.502;19.148;2023-02-21T08:35:39;3.00;;;1.40;;
76978;SDS011;65911;47.502;19.148;2023-02-21T08:38:41;1.67;;;1.40;;
76978;SDS011;65911;47.502;19.148;2023-02-21T08:41:44;7.03;;;1.33;;
76978;SDS011;65911;47.502;19.148;2023-02-21T08:44:48;2.63;;;1.10;;
76978;SDS011;65911;47.502;19.148;2023-02-21T08:47:53;2.70;;;1.15;;
76978;SDS011;65911;47.502;19.148;2023-02-21T08:50:57;4.07;;;1.67;;
76978;SDS011;65911;47.502;19.148;2023-02-21T08:54:00;3.33;;;1.08;;
76978;SDS011;65911;47.502;19.148;2023-02-21T08:57:03;4.20;;;1.45;;
76978;SDS011;65911;47.502;19.148;2023-02-21T09:00:05;2.40;;;1.60;;
76978;SDS011;65911;47.502;19.148;2023-02-21T09:03:14;3.08;;;1.15;;
76978;SDS011;65911;47.502;19.148;2023-02-21T09:06:16;1.83;;;1.58;;
76978;SDS011;65911;47.502;19.148;2023-02-21T09:09:20;3.35;;;1.50;;
76978;SDS011;65911;47.502;19.148;2023-02-21T09:12:23;4.10;;;1.20;;
76978;SDS011;65911;47.502;19.148;2023-02-21T09:15:29;4.03;;;1.60;;
76978;SDS011;65911;47.502;19.148;2023-02-21T09:18:32;3.42;;;1.23;;
76978;SDS011;65911;47.502;19.148;2023-02-21T09:21:44;2.10;;;1.20;;
76978;SDS011;65911;47.502;19.148;2023-02-21T09:24:47;4.88;;;1.30;;
76978;SDS011;65911;47.502;19.148;2023-02-21T09:27:49;3.70;;;1.38;;
76978;SDS011;65911;47.502;19.148;2023-02-21T09:30:55;1.75;;;1.13;;
76978;SDS011;65911;47.502;19.148;2023-02-21T09:33:57;2.20;;;1.38;;
76978;SDS011;65911;47.502;19.148;2023-02-21T09:37:03;2.65;;;1.50;;
76978;SDS011;65911;47.502;19.148;2023-02-21T09:43:30;3.77;;;1.30;;
76978;SDS011;65911;47.502;19.148;2023-02-21T09:46:44;3.05;;;1.30;;
76978;SDS011;65911;47.502;19.148;2023-02-21T09:49:47;2.75;;;1.65;;
76978;SDS011;65911;47.502;19.148;2023-02-21T09:52:51;1.90;;;1.00;;
76978;SDS011;65911;47.502;19.148;2023-02-21T09:55:57;1.77;;;0.98;;
76978;SDS011;65911;47.502;19.148;2023-02-21T09:59:02;2.83;;;0.80;;
76978;SDS011;65911;47.502;19.148;2023-02-21T10:05:38;4.05;;;1.08;;
76978;SDS011;65911;47.502;19.148;2023-02-21T10:12:19;5.35;;;1.30;;
76978;SDS011;65911;47.502;19.148;2023-02-21T10:22:02;3.17;;;1.45;;
76978;SDS011;65911;47.502;19.148;2023-02-21T10:25:22;2.23;;;1.40;;
76978;SDS011;65911;47.502;19.148;2023-02-21T10:28:32;1.70;;;1.08;;
76978;SDS011;65911;47.502;19.148;2023-02-21T10:31:35;3.78;;;1.20;;
76978;SDS011;65911;47.502;19.148;2023-02-21T10:34:39;3.50;;;1.25;;
76978;SDS011;65911;47.502;19.148;2023-02-21T10:37:51;2.65;;;1.25;;
76978;SDS011;65911;47.502;19.148;2023-02-21T10:40:56;3.67;;;1.55;;
76978;SDS011;65911;47.502;19.148;2023-02-21T10:44:02;3.95;;;1.55;;
76978;SDS011;65911;47.502;19.148;2023-02-21T10:47:32;2.13;;;1.33;;
76978;SDS011;65911;47.502;19.148;2023-02-21T10:53:52;3.10;;;1.40;;
76978;SDS011;65911;47.502;19.148;2023-02-21T10:56:59;2.47;;;1.20;;
76978;SDS011;65911;47.502;19.148;2023-02-21T11:00:01;2.58;;;1.17;;
76978;SDS011;65911;47.502;19.148;2023-02-21T11:09:44;1.98;;;1.50;;
76978;SDS011;65911;47.502;19.148;2023-02-21T11:16:18;2.78;;;1.20;;
76978;SDS011;65911;47.502;19.148;2023-02-21T11:19:21;4.03;;;1.40;;
76978;SDS011;65911;47.502;19.148;2023-02-21T11:22:25;4.60;;;1.58;;
76978;SDS011;65911;47.502;19.148;2023-02-21T11:25:43;3.55;;;1.35;;
76978;SDS011;65911;47.502;19.148;2023-02-21T11:28:46;2.80;;;1.50;;
76978;SDS011;65911;47.502;19.148;2023-02-21T11:31:49;3.88;;;1.48;;
76978;SDS011;65911;47.502;19.148;2023-02-21T11:35:00;3.00;;;1.30;;
76978;SDS011;65911;47.502;19.148;2023-02-21T11:38:05;3.03;;;1.30;;
76978;SDS011;65911;47.502;19.148;2023-02-21T11:41:15;2.80;;;1.60;;
76978;SDS011;65911;47.502;19.148;2023-02-21T11:47:26;5.05;;;1.15;;
76978;SDS011;65911;47.502;19.148;2023-02-21T11:50:42;2.20;;;1.30;;
76978;SDS011;65911;47.502;19.148;2023-02-21T11:53:50;1.60;;;1.23;;
76978;SDS011;65911;47.502;19.148;2023-02-21T11:56:53;2.47;;;1.15;;
76978;SDS011;65911;47.502;19.148;2023-02-21T12:07:18;4.32;;;1.40;;
76978;SDS011;65911;47.502;19.148;2023-02-21T12:10:27;2.83;;;1.13;;
76978;SDS011;65911;47.502;19.148;2023-02-21T12:20:41;4.38;;;1.55;;
76978;SDS011;65911;47.502;19.148;2023-02-21T12:31:10;2.45;;;1.10;;
76978;SDS011;65911;47.502;19.148;2023-02-21T12:34:24;3.13;;;1.43;;
76978;SDS011;65911;47.502;19.148;2023-02-21T12:37:57;3.00;;;1.40;;
76978;SDS011;65911;47.502;19.148;2023-02-21T12:41:20;2.72;;;1.25;;
76978;SDS011;65911;47.502;19.148;2023-02-21T12:48:04;2.35;;;1.17;;
76978;SDS011;65911;47.502;19.148;2023-02-21T12:51:13;2.65;;;1.13;;
76978;SDS011;65911;47.502;19.148;2023-02-21T13:01:14;4.05;;;1.35;;
76978;SDS011;65911;47.502;19.148;2023-02-21T13:07:50;2.20;;;1.10;;
76978;SDS011;65911;47.502;19.148;2023-02-21T13:11:04;4.32;;;1.10;;
76978;SDS011;65911;47.502;19.148;2023-02-21T13:14:19;2.58;;;1.10;;
76978;SDS011;65911;47.502;19.148;2023-02-21T13:17:25;4.55;;;1.40;;
76978;SDS011;65911;47.502;19.148;2023-02-21T13:20:32;1.75;;;1.13;;
76978;SDS011;65911;47.502;19.148;2023-02-21T13:27:25;1.55;;;1.25;;
76978;SDS011;65911;47.502;19.148;2023-02-21T13:30:38;2.83;;;0.90;;
76978;SDS011;65911;47.502;19.148;2023-02-21T13:33:43;1.83;;;0.93;;
76978;SDS011;65911;47.502;19.148;2023-02-21T13:36:49;2.45;;;1.13;;
76978;SDS011;65911;47.502;19.148;2023-02-21T13:39:54;2.03;;;1.23;;
76978;SDS011;65911;47.502;19.148;2023-02-21T13:43:12;2.17;;;0.90;;
76978;SDS011;65911;47.502;19.148;2023-02-21T13:56:19;2.95;;;1.25;;
76978;SDS011;65911;47.502;19.148;2023-02-21T14:02:27;2.87;;;1.40;;
76978;SDS011;65911;47.502;19.148;2023-02-21T14:08:48;2.70;;;1.20;;
76978;SDS011;65911;47.502;19.148;2023-02-21T14:11:51;3.93;;;1.33;;
76978;SDS011;65911;47.502;19.148;2023-02-21T14:15:02;1.90;;;1.00;;
76978;SDS011;65911;47.502;19.148;2023-02-21T14:21:42;3.35;;;1.20;;
76978;SDS011;65911;47.502;19.148;2023-02-21T14:24:47;1.83;;;1.05;;
76978;SDS011;65911;47.502;19.148;2023-02-21T14:27:51;2.15;;;1.13;;
76978;SDS011;65911;47.502;19.148;2023-02-21T14:31:02;1.73;;;1.40;;
76978;SDS011;65911;47.502;19.148;2023-02-21T14:34:04;2.27;;;0.90;;
76978;SDS011;65911;47.502;19.148;2023-02-21T14:53:46;1.30;;;0.80;;
76978;SDS011;65911;47.502;19.148;2023-02-21T14:57:02;3.22;;;1.20;;
76978;SDS011;65911;47.502;19.148;2023-02-21T15:03:20;2.50;;;1.00;;
76978;SDS011;65911;47.502;19.148;2023-02-21T15:06:24;1.43;;;1.10;;
76978;SDS011;65911;47.502;19.148;2023-02-21T15:09:27;2.55;;;0.80;;
76978;SDS011;65911;47.502;19.148;2023-02-21T15:12:29;2.50;;;0.93;;
76978;SDS011;65911;47.502;19.148;2023-02-21T15:15:37;1.93;;;0.93;;
76978;SDS011;65911;47.502;19.148;2023-02-21T15:18:41;1.27;;;0.63;;
76978;SDS011;65911;47.502;19.148;2023-02-21T15:25:14;4.97;;;0.82;;
76978;SDS011;65911;47.502;19.148;2023-02-21T15:28:19;1.50;;;1.00;;
76978;SDS011;65911;47.502;19.148;2023-02-21T15:31:31;2.38;;;1.02;;
76978;SDS011;65911;47.502;19.148;2023-02-21T15:34:38;3.67;;;1.00;;
76978;SDS011;65911;47.502;19.148;2023-02-21T15:37:42;1.63;;;0.93;;
76978;SDS011;65911;47.502;19.148;2023-02-21T15:40:46;3.78;;;1.30;;
76978;SDS011;65911;47.502;19.148;2023-02-21T15:44:10;1.83;;;0.73;;
76978;SDS011;65911;47.502;19.148;2023-02-21T15:47:17;2.70;;;0.93;;
76978;SDS011;65911;47.502;19.148;2023-02-21T15:53:29;3.05;;;1.20;;
76978;SDS011;65911;47.502;19.148;2023-02-21T15:56:33;1.48;;;0.70;;
76978;SDS011;65911;47.502;19.148;2023-02-21T15:59:35;4.43;;;1.10;;
76978;SDS011;65911;47.502;19.148;2023-02-21T16:02:38;1.35;;;0.90;;
76978;SDS011;65911;47.502;19.148;2023-02-21T16:05:40;2.22;;;1.00;;
76978;SDS011;65911;47.502;19.148;2023-02-21T16:08:51;3.23;;;1.03;;
76978;SDS011;65911;47.502;19.148;2023-02-21T16:11:58;2.00;;;0.90;;
76978;SDS011;65911;47.502;19.148;2023-02-21T16:15:29;2.67;;;1.15;;
76978;SDS011;65911;47.502;19.148;2023-02-21T16:18:36;1.70;;;1.23;;
76978;SDS011;65911;47.502;19.148;2023-02-21T16:21:38;1.45;;;0.80;;
76978;SDS011;65911;47.502;19.148;2023-02-21T16:24:40;3.40;;;1.23;;
76978;SDS011;65911;47.502;19.148;2023-02-21T16:27:44;2.05;;;0.95;;
76978;SDS011;65911;47.502;19.148;2023-02-21T16:30:48;1.63;;;1.15;;
76978;SDS011;65911;47.502;19.148;2023-02-21T16:33:51;3.20;;;1.27;;
76978;SDS011;65911;47.502;19.148;2023-02-21T16:36:59;3.58;;;1.45;;
76978;SDS011;65911;47.502;19.148;2023-02-21T16:40:10;1.63;;;0.93;;
76978;SDS011;65911;47.502;19.148;2023-02-21T16:43:17;1.38;;;1.00;;
76978;SDS011;65911;47.502;19.148;2023-02-21T16:46:25;3.22;;;1.23;;
76978;SDS011;65911;47.502;19.148;2023-02-21T16:49:31;3.77;;;0.90;;
76978;SDS011;65911;47.502;19.148;2023-02-21T16:52:34;3.50;;;0.98;;
76978;SDS011;65911;47.502;19.148;2023-02-21T16:55:36;3.42;;;1.23;;
76978;SDS011;65911;47.502;19.148;2023-02-21T16:58:39;3.22;;;1.30;;
76978;SDS011;65911;47.502;19.148;2023-02-21T17:01:50;4.90;;;1.45;;
76978;SDS011;65911;47.502;19.148;2023-02-21T17:04:53;3.50;;;1.10;;
76978;SDS011;65911;47.502;19.148;2023-02-21T17:07:55;2.38;;;1.23;;
76978;SDS011;65911;47.502;19.148;2023-02-21T17:10:59;2.13;;;1.00;;
76978;SDS011;65911;47.502;19.148;2023-02-21T17:14:01;3.85;;;1.20;;
76978;SDS011;65911;47.502;19.148;2023-02-21T17:17:03;2.78;;;1.10;;
76978;SDS011;65911;47.502;19.148;2023-02-21T17:20:06;2.33;;;1.23;;
76978;SDS011;65911;47.502;19.148;2023-02-21T17:23:09;2.97;;;1.42;;
76978;SDS011;65911;47.502;19.148;2023-02-21T17:26:11;3.28;;;1.40;;
76978;SDS011;65911;47.502;19.148;2023-02-21T17:29:14;2.88;;;1.17;;
76978;SDS011;65911;47.502;19.148;2023-02-21T17:32:16;3.05;;;1.27;;
76978;SDS011;65911;47.502;19.148;2023-02-21T17:35:19;4.18;;;1.38;;
76978;SDS011;65911;47.502;19.148;2023-02-21T17:38:23;4.55;;;1.52;;
76978;SDS011;65911;47.502;19.148;2023-02-21T17:41:25;2.90;;;1.20;;
76978;SDS011;65911;47.502;19.148;2023-02-21T17:44:28;5.22;;;1.77;;
76978;SDS011;65911;47.502;19.148;2023-02-21T17:47:31;3.17;;;1.35;;
76978;SDS011;65911;47.502;19.148;2023-02-21T17:50:33;4.40;;;1.80;;
76978;SDS011;65911;47.502;19.148;2023-02-21T17:53:35;4.18;;;1.77;;
76978;SDS011;65911;47.502;19.148;2023-02-21T17:56:37;2.72;;;1.50;;
76978;SDS011;65911;47.502;19.148;2023-02-21T17:59:40;2.00;;;1.25;;
76978;SDS011;65911;47.502;19.148;2023-02-21T18:02:42;2.90;;;1.60;;
76978;SDS011;65911;47.502;19.148;2023-02-21T18:05:44;3.28;;;1.60;;
76978;SDS011;65911;47.502;19.148;2023-02-21T18:08:46;2.95;;;1.30;;
76978;SDS011;65911;47.502;19.148;2023-02-21T18:11:49;2.90;;;1.13;;
76978;SDS011;65911;47.502;19.148;2023-02-21T18:14:55;3.55;;;1.70;;
76978;SDS011;65911;47.502;19.148;2023-02-21T18:17:58;2.85;;;1.00;;
76978;SDS011;65911;47.502;19.148;2023-02-21T18:21:08;5.27;;;1.57;;
76978;SDS011;65911;47.502;19.148;2023-02-21T18:24:10;2.45;;;1.20;;
76978;SDS011;65911;47.502;19.148;2023-02-21T18:27:14;5.43;;;1.35;;
76978;SDS011;65911;47.502;19.148;2023-02-21T18:30:17;3.20;;;1.50;;
76978;SDS011;65911;47.502;19.148;2023-02-21T18:33:20;3.08;;;1.40;;
76978;SDS011;65911;47.502;19.148;2023-02-21T18:36:23;3.17;;;1.50;;
76978;SDS011;65911;47.502;19.148;2023-02-21T18:39:28;1.55;;;0.90;;
76978;SDS011;65911;47.502;19.148;2023-02-21T18:42:30;7.07;;;1.77;;
76978;SDS011;65911;47.502;19.148;2023-02-21T18:45:32;3.58;;;1.42;;
76978;SDS011;65911;47.502;19.148;2023-02-21T18:48:35;6.28;;;1.05;;
76978;SDS011;65911;47.502;19.148;2023-02-21T18:51:37;3.03;;;1.50;;
76978;SDS011;65911;47.502;19.148;2023-02-21T18:54:43;3.42;;;1.45;;
76978;SDS011;65911;47.502;19.148;2023-02-21T18:57:50;2.53;;;1.00;;
76978;SDS011;65911;47.502;19.148;2023-02-21T19:00:53;4.38;;;1.20;;
76978;SDS011;65911;47.502;19.148;2023-02-21T19:03:55;2.80;;;1.60;;
76978;SDS011;65911;47.502;19.148;2023-02-21T19:06:57;3.45;;;1.40;;
76978;SDS011;65911;47.502;19.148;2023-02-21T19:09:59;2.85;;;1.27;;
76978;SDS011;65911;47.502;19.148;2023-02-21T19:13:02;2.87;;;1.70;;
76978;SDS011;65911;47.502;19.148;2023-02-21T19:16:06;3.92;;;1.80;;
76978;SDS011;65911;47.502;19.148;2023-02-21T19:19:08;2.55;;;1.25;;
76978;SDS011;65911;47.502;19.148;2023-02-21T19:22:10;4.77;;;1.60;;
76978;SDS011;65911;47.502;19.148;2023-02-21T19:25:13;3.67;;;1.20;;
76978;SDS011;65911;47.502;19.148;2023-02-21T19:28:17;4.80;;;1.30;;
76978;SDS011;65911;47.502;19.148;2023-02-21T19:31:19;2.90;;;1.40;;
76978;SDS011;65911;47.502;19.148;2023-02-21T19:34:21;3.22;;;1.30;;
76978;SDS011;65911;47.502;19.148;2023-02-21T19:37:24;2.88;;;1.60;;
76978;SDS011;65911;47.502;19.148;2023-02-21T19:40:26;2.75;;;1.42;;
76978;SDS011;65911;47.502;19.148;2023-02-21T19:43:28;3.07;;;1.30;;
76978;SDS011;65911;47.502;19.148;2023-02-21T19:46:30;4.00;;;1.88;;
76978;SDS011;65911;47.502;19.148;2023-02-21T19:49:33;2.35;;;1.33;;
76978;SDS011;65911;47.502;19.148;2023-02-21T19:52:35;4.10;;;1.70;;
76978;SDS011;65911;47.502;19.148;2023-02-21T19:55:38;2.28;;;1.35;;
76978;SDS011;65911;47.502;19.148;2023-02-21T19:58:40;2.60;;;1.60;;
76978;SDS011;65911;47.502;19.148;2023-02-21T20:01:43;2.47;;;1.35;;
76978;SDS011;65911;47.502;19.148;2023-02-21T20:04:46;4.53;;;1.42;;
76978;SDS011;65911;47.502;19.148;2023-02-21T20:07:50;3.55;;;1.50;;
76978;SDS011;65911;47.502;19.148;2023-02-21T20:10:52;3.08;;;1.77;;
76978;SDS011;65911;47.502;19.148;2023-02-21T20:13:54;2.80;;;1.43;;
76978;SDS011;65911;47.502;19.148;2023-02-21T20:16:56;4.32;;;1.77;;
76978;SDS011;65911;47.502;19.148;2023-02-21T20:19:58;4.63;;;1.60;;
76978;SDS011;65911;47.502;19.148;2023-02-21T20:23:01;3.23;;;1.77;;
76978;SDS011;65911;47.502;19.148;2023-02-21T20:26:04;3.95;;;2.00;;
76978;SDS011;65911;47.502;19.148;2023-02-21T20:29:11;5.55;;;2.25;;
76978;SDS011;65911;47.502;19.148;2023-02-21T20:32:14;3.92;;;2.10;;
76978;SDS011;65911;47.502;19.148;2023-02-21T20:35:19;3.60;;;2.05;;
76978;SDS011;65911;47.502;19.148;2023-02-21T20:38:21;4.93;;;1.83;;
76978;SDS011;65911;47.502;19.148;2023-02-21T20:41:31;3.08;;;2.28;;
76978;SDS011;65911;47.502;19.148;2023-02-21T20:44:35;4.03;;;1.87;;
76978;SDS011;65911;47.502;19.148;2023-02-21T20:47:38;3.70;;;2.15;;
76978;SDS011;65911;47.502;19.148;2023-02-21T20:50:41;4.95;;;2.10;;
76978;SDS011;65911;47.502;19.148;2023-02-21T20:53:43;3.77;;;2.07;;
76978;SDS011;65911;47.502;19.148;2023-02-21T20:56:49;3.53;;;2.28;;
76978;SDS011;65911;47.502;19.148;2023-02-21T20:59:54;3.13;;;2.13;;
76978;SDS011;65911;47.502;19.148;2023-02-21T21:02:56;5.47;;;2.30;;
76978;SDS011;65911;47.502;19.148;2023-02-21T21:06:00;2.92;;;2.08;;
76978;SDS011;65911;47.502;19.148;2023-02-21T21:09:03;3.40;;;2.33;;